Flight Track Log - Related Links

Times and Time Zones

All times are in EDT time to prevent confusion due to time zone crossing. See the N7893L flight status page for this flight to view local times or setup timezone preferences in your user account.

Time Position Orientation Groundspeed Altitude Reporting Facility
EDT Latitude Longitude Course Direction KTS MPH feet Rate Location/Type
Wed 10:23:43 AM 34.5492 -83.6203 North 157 181 4,300  Level Atlanta Center
Wed 10:24:43 AM 34.5764 -83.6403 329° Northwest 124 143 5,300 1,000 Climbing Atlanta Center
Wed 10:25:43 AM 34.6033 -83.6603 329° Northwest 113 130 6,300 950 Climbing Atlanta Center
Wed 10:26:43 AM 34.6286 -83.6803 327° Northwest 107 123 7,200 800 Climbing Atlanta Center
Wed 10:27:43 AM 34.6536 -83.7006 326° Northwest 107 123 7,900 400 Climbing Atlanta Center
Wed 10:28:00 AM 34.6763 -83.6929 321° Northwest  Level FlightAware
Wed 10:28:43 AM 34.6831 -83.7256 325° Northwest 117 135 8,000  Level Atlanta Center
Wed 10:29:00 AM 34.7206 -83.6974 North  Level Estimated
Wed 10:29:43 AM 34.7228 -83.7533 330° Northwest 148 170 8,000  Level Atlanta Center
Wed 10:30:43 AM 34.7625 -83.7808 330° Northwest 163 188 8,000  Level Atlanta Center
Wed 10:31:43 AM 34.8019 -83.8061 332° Northwest 168 193 8,000  Level Atlanta Center
Wed 10:32:43 AM 34.8417 -83.8311 333° Northwest 162 186 8,000  Level Atlanta Center
Wed 10:33:43 AM 34.8897 -83.8361 355° North 157 181 8,000 50 Level Atlanta Center
Wed 10:34:43 AM 34.9358 -83.8436 352° North 162 186 8,100 50 Climbing Atlanta Center
Wed 10:35:43 AM 34.9794 -83.8461 357° North 162 186 8,100  Level Atlanta Center
Wed 10:36:43 AM 35.0275 -83.8511 355° North 162 186 8,100 -50 Level Atlanta Center
Wed 10:37:43 AM 35.0714 -83.8561 355° North 162 186 8,000  Descending Atlanta Center
Wed 10:38:43 AM 35.1172 -83.8586 357° North 162 186 8,100 50 Climbing Atlanta Center
Wed 10:39:43 AM 35.1631 -83.8633 355° North 162 186 8,100 -50 Level Atlanta Center
Wed 10:40:43 AM 35.2111 -83.8658 358° North 162 186 8,000  Descending Atlanta Center
Wed 10:41:43 AM 35.2569 -83.8658 360° North 162 186 8,100 50 Climbing Atlanta Center
Wed 10:42:43 AM 35.3031 -83.8683 357° North 162 186 8,100  Level Atlanta Center
Wed 10:43:43 AM 35.3489 -83.8706 358° North 162 186 8,100 -50 Level Atlanta Center
Wed 10:44:43 AM 35.3969 -83.8706 360° North 162 186 8,000 -50 Descending Atlanta Center
Wed 10:45:43 AM 35.4428 -83.8756 355° North 162 186 8,000  Level Atlanta Center
Wed 10:46:43 AM 35.4908 -83.8756 360° North 162 186 8,000  Level Atlanta Center
Wed 10:47:43 AM 35.5367 -83.8781 357° North 162 186 8,000  Level Atlanta Center
Wed 10:48:43 AM 35.5825 -83.8831 355° North 162 186 8,000 50 Level Atlanta Center
Wed 10:49:43 AM 35.6283 -83.8831 360° North 162 186 8,100 -128 Climbing Atlanta Center
Wed 10:51:00 AM 35.6856 -83.8831 360° North  Level FlightAware
Wed 10:57:19 AM 35.9853 -83.9464 347° North 172 198 6,900  Level Atlanta Center
Wed 10:58:00 AM 35.9959 -83.9101 347° North  Level FlightAware
Wed 10:58:19 AM 36.0353 -83.9539 353° North 184 212 6,000  Level Atlanta Center
Wed 10:59:00 AM 36.0401 -83.9224 347° North  Level FlightAware
Wed 10:59:19 AM 36.0833 -83.9592 355° North 184 212 5,300  Level Atlanta Center
Wed 11:00:00 AM 36.0843 -83.9348 347° North  Level FlightAware
Wed 11:00:19 AM 36.1333 -83.9694 351° North 184 212 4,400  Level Atlanta Center
Wed 11:01:00 AM 36.1285 -83.9472 347° North  Level FlightAware
Wed 11:01:19 AM 36.1814 -83.9769 353° North 176 203 4,100  Level Atlanta Center
Wed 11:02:19 AM 36.2250 -83.9847 352° North 171 197 4,000 -250 Descending Atlanta Center
Wed 11:03:19 AM 36.2711 -83.9872 357° North 171 197 3,600 -333 Descending Atlanta Center
Wed 11:03:49 AM 36.2872 -83.9847 North 160 184 3,500 -261 Descending Indianapolis Center
Wed 11:04:51 AM 36.3378 -83.9900 355° North 161 185 3,200 -387 Descending Indianapolis Center
Wed 11:05:53 AM 36.3472 -84.0444 282° West 172 198 2,700 -339 Descending Indianapolis Center
Wed 11:06:55 AM 36.3467 -83.9958 91° East 141 162 2,500 -290 Descending Indianapolis Center
Wed 11:07:57 AM 36.3614 -83.9961 359° North 58 67 2,100 1,618 Descending Indianapolis Center
Wed 11:10:19 AM 36.3961 -84.1575 285° West 171 197 8,000 1,752 Climbing Atlanta Center
Wed 11:11:19 AM 36.3961 -84.1575 360° North 171 197 8,000  Level Atlanta Center
Wed 11:13:19 AM 36.3961 -84.1575 360° North 171 197 8,000  Level Atlanta Center
Wed 11:15:19 AM 36.3961 -84.1575 360° North 171 197 8,000 -198 Level Atlanta Center
Wed 11:18:00 AM 36.4571 -84.0948 40° Northeast  Level FlightAware
Wed 11:19:53 AM 36.5100 -84.0450 354° North 103 119 6,700  Level Indianapolis Center
Wed 11:20:56 AM 36.5381 -84.0558 343° North 105 121 7,400 677 Climbing Indianapolis Center
Wed 11:21:57 AM 36.5694 -84.0550 North 111 128 8,100 341 Climbing Indianapolis Center
Wed 11:22:59 AM 36.6072 -84.0578 357° North 124 143 8,100  Level Indianapolis Center
Wed 11:24:01 AM 36.6606 -84.0614 357° North 153 176 8,100  Level Indianapolis Center
Wed 11:25:00 AM 36.7861 -84.1079 354° North  Level Estimated
Wed 11:25:03 AM 36.7067 -84.0633 358° North 163 188 8,100  Level Indianapolis Center
Wed 11:26:04 AM 36.7517 -84.0681 355° North 162 186 8,100  Level Indianapolis Center
Wed 11:27:06 AM 36.7975 -84.0733 355° North 164 189 8,100  Level Indianapolis Center
Wed 11:28:08 AM 36.8417 -84.0783 355° North 161 185 8,100  Level Indianapolis Center
Wed 11:29:10 AM 36.8875 -84.0847 354° North 163 188 8,100  Level Indianapolis Center
Wed 11:30:12 AM 36.9336 -84.0931 352° North 166 191 8,100  Level Indianapolis Center
Wed 11:31:14 AM 36.9861 -84.1033 351° North 165 190 8,100  Level Indianapolis Center
Wed 11:32:16 AM 37.0333 -84.1139 350° North 168 193 8,100  Level Indianapolis Center
Wed 11:33:17 AM 37.0783 -84.1222 352° North 166 191 8,100  Level Indianapolis Center
Wed 11:34:19 AM 37.1242 -84.1253 357° North 164 189 8,100  Level Indianapolis Center
Wed 11:35:21 AM 37.1703 -84.1222 North 165 190 8,100  Level Indianapolis Center
Wed 11:36:23 AM 37.2167 -84.1228 359° North 166 191 8,100  Level Indianapolis Center
Wed 11:37:25 AM 37.2711 -84.1253 358° North 167 192 8,100 98 Level Indianapolis Center
Wed 11:38:26 AM 37.3164 -84.1242 North 164 189 8,300  Climbing Indianapolis Center
Wed 11:39:28 AM 37.3592 -84.1381 346° North 161 185 8,100 -97 Descending Indianapolis Center
Wed 11:40:30 AM 37.4069 -84.1358 North 168 193 8,100  Level Indianapolis Center
Wed 11:41:32 AM 37.4539 -84.1350 North 168 193 8,100  Level Indianapolis Center
Wed 11:42:34 AM 37.5011 -84.1356 359° North 169 194 8,100  Level Indianapolis Center
Wed 11:43:36 AM 37.5481 -84.1356 360° North 168 193 8,100  Level Indianapolis Center
Wed 11:44:37 AM 37.6025 -84.1364 359° North 169 194 8,100  Level Indianapolis Center
Wed 11:45:39 AM 37.6492 -84.1367 360° North 168 193 8,100  Level Indianapolis Center
Wed 11:46:41 AM 37.6961 -84.1372 359° North 168 193 8,100  Level Indianapolis Center
Wed 11:47:43 AM 37.7439 -84.1375 360° North 170 196 8,100  Level Indianapolis Center
Wed 11:48:45 AM 37.7894 -84.1503 348° North 169 194 8,100  Level Indianapolis Center
Wed 11:49:47 AM 37.8358 -84.1653 346° North 170 196 8,100  Level Indianapolis Center
Wed 11:50:49 AM 37.8906 -84.1819 346° North 173 199 8,100  Level Indianapolis Center
Wed 11:51:50 AM 37.9358 -84.2003 342° North 171 197 8,100 -49 Level Indianapolis Center
Wed 11:52:52 AM 37.9831 -84.2153 346° North 173 199 8,000 -48 Descending Indianapolis Center
Wed 11:53:54 AM 38.0303 -84.2139 North 170 196 8,000  Level Indianapolis Center
Wed 11:54:56 AM 38.0783 -84.2147 359° North 171 197 8,000  Level Indianapolis Center
Wed 11:55:58 AM 38.1264 -84.2150 360° North 172 198 8,000  Level Indianapolis Center
Wed 11:57:00 AM 38.1831 -84.2164 359° North 173 199 8,000  Level Indianapolis Center
Wed 11:58:02 AM 38.2314 -84.2169 359° North 173 199 8,000  Level Indianapolis Center
Wed 11:59:04 AM 38.2797 -84.2164 North 173 199 8,000  Level Indianapolis Center
Wed 12:00:06 PM 38.3275 -84.2114 North 171 197 8,000  Level Indianapolis Center
Wed 12:02:10 PM 38.4231 -84.2072 North 170 196 8,000 32 Level Indianapolis Center
Wed 12:03:12 PM 38.4778 -84.2122 356° North 168 193 8,100 48 Climbing Indianapolis Center
Wed 12:04:14 PM 38.5253 -84.2147 358° North 170 196 8,100  Level Indianapolis Center
Wed 12:05:15 PM 38.5733 -84.2136 North 171 197 8,100 -98 Level Indianapolis Center
Wed 12:06:17 PM 38.6211 -84.2186 355° North 172 198 7,900 -435 Descending Indianapolis Center
Wed 12:07:19 PM 38.6742 -84.2225 357° North 180 207 7,200 -387 Descending Indianapolis Center
Wed 12:08:21 PM 38.7258 -84.2200 North 184 212 7,100 -97 Descending Indianapolis Center
Wed 12:09:23 PM 38.7742 -84.2139 North 175 201 7,000  Descending Indianapolis Center
Wed 12:10:25 PM 38.8289 -84.2036 North 169 194 7,100  Climbing Indianapolis Center
Wed 12:11:27 PM 38.8753 -84.1894 13° North 169 194 7,000 -242 Descending Indianapolis Center
Wed 12:12:29 PM 38.9236 -84.1806 North 173 199 6,600 -532 Descending Indianapolis Center
Wed 12:13:31 PM 38.9742 -84.1625 16° North 185 213 5,900 -484 Descending Indianapolis Center
Wed 12:14:33 PM 39.0178 -84.1372 24° Northeast 182 209 5,600 -290 Descending Indianapolis Center

Login

Don't have an account? Register now (free) for customized features, flight alerts, and more!